NOAA Web Site Link Tides and Currents Home Page Transparent placeholder image

PORTS® Data Listing: 8540433 Marcus Hook, PA

CO-OPS RAW PORTS DATA

************************      PRELIMINARY DATA      ************************** 

     THIS RAW DATA HAS NOT BEEN SUBJECT TO THE NATIONAL OCEAN SERVICE'S        
     QUALITY CONTROL OR QUALITY ASSURANCE PROCEDURES AND DOES NOT MEET         
     THE CRITERIA AND STANDARDS OF OFFICIAL NATIONAL OCEAN SERVICE             
     DATA.  IT IS RELEASED FOR LIMITED PUBLIC USE AS PRELIMINARY DATA TO       
     BE USED ONLY WITH APPROPRIATE CAUTION.                                    

************************      PRELIMINARY DATA      ************************** 


       CD   -   Calendar date
       T    -   Time
       TZ   -   Timezone
       PW   -   Predicted water level (feet above MLLW)
       OW   -   Observed water level (feet above MLLW)
       WS   -   Wind speed (knots)
       WD   -   Wind direction (degrees true)
       WG   -   Wind gust (knots)
       AT   -   Air temperature (degrees farenheit)
       WT   -   Water temperature (degrees farenheit)
       AP   -   Air pressure (millibars)
       SA   -   Salinty (PSU - Practical Salinity Units)
       SG   -   Specific gravity
       RH   -   Relative humidity
       AG   -   Air gap (feet)
       VI   -   Visibility (nautical miles)

       ** NOTE **
       A variable that has its data fields filled with "9"s, indicates that
       data was not collected for that sample period.
       **********


STATION NAME: Marcus Hook (8540433)
****************************************************************************************************
    CD       T    TZ    PW     OW    WS   WD   WG    AT    WT    AP    SA    SG     RH    AG   VI
****************************************************************************************************
2018/06/17 07:30 EDT    3.43   3.36 -999 -999 -999  72.7  72.9 1018.3 -9.9 -9.999 -99.9 -99.99 -9.99
2018/06/17 07:36 EDT    3.33   3.26 -999 -999 -999  73.4  73.0 1018.3 -9.9 -9.999 -99.9 -99.99 -9.99
2018/06/17 07:42 EDT    3.22   3.17 -999 -999 -999  72.9  72.5 1018.4 -9.9 -9.999 -99.9 -99.99 -9.99
2018/06/17 07:48 EDT    3.12   3.07 -999 -999 -999  72.3  72.7 1018.5 -9.9 -9.999 -99.9 -99.99 -9.99
2018/06/17 07:54 EDT    3.01   2.98 -999 -999 -999  72.7  72.7 1018.6 -9.9 -9.999 -99.9 -99.99 -9.99
2018/06/17 08:00 EDT    2.90   2.89 -999 -999 -999  73.2  72.7 1018.6 -9.9 -9.999 -99.9 -99.99 -9.99
2018/06/17 08:06 EDT    2.80   2.79 -999 -999 -999  73.2  72.7 1018.6 -9.9 -9.999 -99.9 -99.99 -9.99
2018/06/17 08:12 EDT    2.69   2.70 -999 -999 -999  72.7  72.9 1018.6 -9.9 -9.999 -99.9 -99.99 -9.99
2018/06/17 08:18 EDT    2.58   2.61 -999 -999 -999  72.1  72.7 1018.7 -9.9 -9.999 -99.9 -99.99 -9.99
2018/06/17 08:24 EDT    2.47   2.52 -999 -999 -999  71.8  72.5 1018.9 -9.9 -9.999 -99.9 -99.99 -9.99
2018/06/17 08:30 EDT    2.36   2.42 -999 -999 -999  72.1  72.7 1018.9 -9.9 -9.999 -99.9 -99.99 -9.99
2018/06/17 08:36 EDT    2.25   2.33 -999 -999 -999  72.9  72.5 1018.9 -9.9 -9.999 -99.9 -99.99 -9.99
2018/06/17 08:42 EDT    2.14   2.23 -999 -999 -999  73.4  72.5 1019.0 -9.9 -9.999 -99.9 -99.99 -9.99
2018/06/17 08:48 EDT    2.02   2.14 -999 -999 -999  73.8  72.5 1018.9 -9.9 -9.999 -99.9 -99.99 -9.99
2018/06/17 08:54 EDT    1.91   2.05 -999 -999 -999  73.2  72.7 1018.9 -9.9 -9.999 -99.9 -99.99 -9.99
2018/06/17 09:00 EDT    1.79   1.97 -999 -999 -999  73.6  72.9 1019.0 -9.9 -9.999 -99.9 -99.99 -9.99
2018/06/17 09:06 EDT    1.67   1.88 -999 -999 -999  73.8  72.7 1019.0 -9.9 -9.999 -99.9 -99.99 -9.99
2018/06/17 09:12 EDT    1.55   1.80 -999 -999 -999  75.2  72.7 1019.0 -9.9 -9.999 -99.9 -99.99 -9.99
2018/06/17 09:18 EDT    1.44   1.71 -999 -999 -999  74.8  72.9 1019.1 -9.9 -9.999 -99.9 -99.99 -9.99
2018/06/17 09:24 EDT    1.32   1.63 -999 -999 -999  74.5  72.5 1019.0 -9.9 -9.999 -99.9 -99.99 -9.99
2018/06/17 09:30 EDT    1.20   1.55 -999 -999 -999  74.1  72.5 1019.0 -9.9 -9.999 -99.9 -99.99 -9.99
2018/06/17 09:36 EDT    1.08   1.46 -999 -999 -999  73.8  72.5 1019.2 -9.9 -9.999 -99.9 -99.99 -9.99
2018/06/17 09:42 EDT    0.96   1.38 -999 -999 -999  73.9  73.0 1019.1 -9.9 -9.999 -99.9 -99.99 -9.99
2018/06/17 09:48 EDT    0.84   1.28 -999 -999 -999  74.1  73.0 1019.2 -9.9 -9.999 -99.9 -99.99 -9.99
2018/06/17 09:54 EDT    0.73   1.20 -999 -999 -999  74.7  72.7 1019.3 -9.9 -9.999 -99.9 -99.99 -9.99
2018/06/17 10:00 EDT    0.62   1.13 -999 -999 -999  74.8  72.5 1019.3 -9.9 -9.999 -99.9 -99.99 -9.99
2018/06/17 10:06 EDT    0.52   1.05 -999 -999 -999  75.0  72.7 1019.2 -9.9 -9.999 -99.9 -99.99 -9.99
2018/06/17 10:12 EDT    0.42   0.97 -999 -999 -999  75.2  72.9 1019.1 -9.9 -9.999 -99.9 -99.99 -9.99
2018/06/17 10:18 EDT    0.33   0.90 -999 -999 -999  75.4  72.9 1019.0 -9.9 -9.999 -99.9 -99.99 -9.99
2018/06/17 10:24 EDT    0.25   0.82 -999 -999 -999  75.6  72.7 1018.9 -9.9 -9.999 -99.9 -99.99 -9.99
2018/06/17 10:30 EDT    0.18   0.75 -999 -999 -999  76.5  72.7 1019.0 -9.9 -9.999 -99.9 -99.99 -9.99
2018/06/17 10:36 EDT    0.12   0.67 -999 -999 -999  78.1  73.0 1019.0 -9.9 -9.999 -99.9 -99.99 -9.99
2018/06/17 10:42 EDT    0.08   0.60 -999 -999 -999  78.6  72.9 1019.0 -9.9 -9.999 -99.9 -99.99 -9.99
2018/06/17 10:48 EDT    0.04   0.54 -999 -999 -999  79.2  72.7 1019.0 -9.9 -9.999 -99.9 -99.99 -9.99
2018/06/17 10:54 EDT    0.02   0.47 -999 -999 -999  79.5  72.9 1019.0 -9.9 -9.999 -99.9 -99.99 -9.99
2018/06/17 11:00 EDT    0.01   0.41 -999 -999 -999  79.3  72.9 1019.0 -9.9 -9.999 -99.9 -99.99 -9.99
2018/06/17 11:06 EDT    0.02   0.35 -999 -999 -999  79.3  72.9 1019.0 -9.9 -9.999 -99.9 -99.99 -9.99
2018/06/17 11:12 EDT    0.05   0.30 -999 -999 -999  79.7  73.0 1019.0 -9.9 -9.999 -99.9 -99.99 -9.99
2018/06/17 11:18 EDT    0.09   0.26 -999 -999 -999  80.2  73.2 1019.1 -9.9 -9.999 -99.9 -99.99 -9.99
2018/06/17 11:24 EDT    0.14   0.22 -999 -999 -999  80.2  73.2 1019.1 -9.9 -9.999 -99.9 -99.99 -9.99
2018/06/17 11:30 EDT    0.22   0.20 -999 -999 -999  80.6  73.2 1019.1 -9.9 -9.999 -99.9 -99.99 -9.99
2018/06/17 11:36 EDT    0.30   0.21 -999 -999 -999  79.9  73.2 1019.0 -9.9 -9.999 -99.9 -99.99 -9.99
2018/06/17 11:42 EDT    0.41   0.27 -999 -999 -999  80.6  73.6 1019.1 -9.9 -9.999 -99.9 -99.99 -9.99
2018/06/17 11:48 EDT    0.52   0.36 -999 -999 -999  81.0  74.3 1019.1 -9.9 -9.999 -99.9 -99.99 -9.99
2018/06/17 11:54 EDT    0.65   0.50 -999 -999 -999  82.0  75.9 1019.1 -9.9 -9.999 -99.9 -99.99 -9.99
2018/06/17 12:00 EDT    0.79   0.70 -999 -999 -999  81.9  77.2 1019.1 -9.9 -9.999 -99.9 -99.99 -9.99
2018/06/17 12:06 EDT    0.94   0.92 -999 -999 -999  82.4  74.7 1019.0 -9.9 -9.999 -99.9 -99.99 -9.99
2018/06/17 12:12 EDT    1.10   1.17 -999 -999 -999  82.6  73.8 1019.0 -9.9 -9.999 -99.9 -99.99 -9.99
2018/06/17 12:18 EDT    1.27   1.43 -999 -999 -999  82.4  73.8 1018.8 -9.9 -9.999 -99.9 -99.99 -9.99
2018/06/17 12:24 EDT    1.45   1.68 -999 -999 -999  82.8  73.8 1018.7 -9.9 -9.999 -99.9 -99.99 -9.99
2018/06/17 12:30 EDT    1.63   1.90 -999 -999 -999  82.9  73.6 1018.6 -9.9 -9.999 -99.9 -99.99 -9.99
2018/06/17 12:36 EDT    1.81   2.11 -999 -999 -999  82.9  73.8 1018.5 -9.9 -9.999 -99.9 -99.99 -9.99
2018/06/17 12:42 EDT    2.00   2.34 -999 -999 -999  83.3  73.9 1018.4 -9.9 -9.999 -99.9 -99.99 -9.99
2018/06/17 12:48 EDT    2.18   2.55 -999 -999 -999  83.5  73.8 1018.5 -9.9 -9.999 -99.9 -99.99 -9.99
2018/06/17 12:54 EDT    2.37   2.75 -999 -999 -999  84.0  73.8 1018.4 -9.9 -9.999 -99.9 -99.99 -9.99
2018/06/17 13:00 EDT    2.55   2.94 -999 -999 -999  84.2  73.8 1018.4 -9.9 -9.999 -99.9 -99.99 -9.99
2018/06/17 13:06 EDT    2.74   3.13 -999 -999 -999  83.5  75.4 1018.3 -9.9 -9.999 -99.9 -99.99 -9.99
2018/06/17 13:12 EDT    2.92   3.31 -999 -999 -999  83.5  74.8 1018.1 -9.9 -9.999 -99.9 -99.99 -9.99
2018/06/17 13:18 EDT    3.09   3.48 -999 -999 -999  83.1  74.3 1018.0 -9.9 -9.999 -99.9 -99.99 -9.99
2018/06/17 13:24 EDT    3.27   3.64 -999 -999 -999  82.8  74.1 1017.9 -9.9 -9.999 -99.9 -99.99 -9.99
2018/06/17 13:30 EDT    3.43   3.79 -999 -999 -999  82.9  74.1 1017.9 -9.9 -9.999 -99.9 -99.99 -9.99
2018/06/17 13:36 EDT    3.59   3.94 -999 -999 -999  82.9  74.1 1017.9 -9.9 -9.999 -99.9 -99.99 -9.99
2018/06/17 13:42 EDT    3.75   4.09 -999 -999 -999  82.8  73.9 1017.8 -9.9 -9.999 -99.9 -99.99 -9.99
2018/06/17 13:48 EDT    3.90   4.22 -999 -999 -999  83.1  73.9 1017.7 -9.9 -9.999 -99.9 -99.99 -9.99
2018/06/17 13:54 EDT    4.05   4.38 -999 -999 -999  83.5  73.9 1017.7 -9.9 -9.999 -99.9 -99.99 -9.99
2018/06/17 14:00 EDT    4.19   4.53 -999 -999 -999  83.5  73.8 1017.7 -9.9 -9.999 -99.9 -99.99 -9.99
2018/06/17 14:06 EDT    4.32   4.67 -999 -999 -999  83.7  73.6 1017.8 -9.9 -9.999 -99.9 -99.99 -9.99
2018/06/17 14:12 EDT    4.45   4.79 -999 -999 -999  84.4  73.6 1017.8 -9.9 -9.999 -99.9 -99.99 -9.99
2018/06/17 14:18 EDT    4.58   4.90 -999 -999 -999  84.4  73.8 1017.9 -9.9 -9.999 -99.9 -99.99 -9.99
2018/06/17 14:24 EDT    4.70   5.05 -999 -999 -999  84.4  73.8 1017.9 -9.9 -9.999 -99.9 -99.99 -9.99
2018/06/17 14:30 EDT    4.81   5.16 -999 -999 -999  84.9  73.4 1017.9 -9.9 -9.999 -99.9 -99.99 -9.99
2018/06/17 14:36 EDT    4.92   5.29 -999 -999 -999  84.9  73.4 1017.9 -9.9 -9.999 -99.9 -99.99 -9.99
2018/06/17 14:42 EDT    5.03   5.39 -999 -999 -999  84.2  73.4 1017.9 -9.9 -9.999 -99.9 -99.99 -9.99
2018/06/17 14:48 EDT    5.13   5.51 -999 -999 -999  84.6  73.6 1017.9 -9.9 -9.999 -99.9 -99.99 -9.99
2018/06/17 14:54 EDT    5.22   5.62 -999 -999 -999  84.6  73.8 1017.9 -9.9 -9.999 -99.9 -99.99 -9.99
2018/06/17 15:00 EDT    5.31   5.71 -999 -999 -999  84.9  73.8 1017.9 -9.9 -9.999 -99.9 -99.99 -9.99
2018/06/17 15:06 EDT    5.39   5.80 -999 -999 -999  84.0  73.9 1017.8 -9.9 -9.999 -99.9 -99.99 -9.99
2018/06/17 15:12 EDT    5.47   5.87 -999 -999 -999  82.9  73.8 1017.8 -9.9 -9.999 -99.9 -99.99 -9.99
2018/06/17 15:18 EDT    5.54   5.94 -999 -999 -999  82.9  73.8 1017.8 -9.9 -9.999 -99.9 -99.99 -9.99
2018/06/17 15:24 EDT    5.61   5.99 -999 -999 -999  84.6  73.6 1017.8 -9.9 -9.999 -99.9 -99.99 -9.99
2018/06/17 15:30 EDT    5.67   6.06 -999 -999 -999  84.9  73.4 1017.7 -9.9 -9.999 -99.9 -99.99 -9.99
2018/06/17 15:36 EDT    5.72   6.11 -999 -999 -999  85.6  73.6 1017.7 -9.9 -9.999 -99.9 -99.99 -9.99
2018/06/17 15:42 EDT    5.76   6.16 -999 -999 -999  84.9  73.6 1017.7 -9.9 -9.999 -99.9 -99.99 -9.99
2018/06/17 15:48 EDT    5.80   6.20 -999 -999 -999  84.9  73.4 1017.6 -9.9 -9.999 -99.9 -99.99 -9.99
2018/06/17 15:54 EDT    5.83   6.24 -999 -999 -999  84.6  73.6 1017.6 -9.9 -9.999 -99.9 -99.99 -9.99
2018/06/17 16:00 EDT    5.84   6.28 -999 -999 -999  84.7  73.6 1017.7 -9.9 -9.999 -99.9 -99.99 -9.99
2018/06/17 16:06 EDT    5.85   6.31 -999 -999 -999  85.3  73.6 1017.7 -9.9 -9.999 -99.9 -99.99 -9.99
2018/06/17 16:12 EDT    5.86   6.33 -999 -999 -999  85.6  73.6 1017.7 -9.9 -9.999 -99.9 -99.99 -9.99
2018/06/17 16:18 EDT    5.85   6.35 -999 -999 -999  85.3  73.6 1017.6 -9.9 -9.999 -99.9 -99.99 -9.99
2018/06/17 16:24 EDT    5.83   6.36 -999 -999 -999  84.9  73.8 1017.6 -9.9 -9.999 -99.9 -99.99 -9.99
2018/06/17 16:30 EDT    5.81   6.37 -999 -999 -999  84.9  73.8 1017.6 -9.9 -9.999 -99.9 -99.99 -9.99
2018/06/17 16:36 EDT    5.78   6.36 -999 -999 -999  85.8  73.8 1017.5 -9.9 -9.999 -99.9 -99.99 -9.99
2018/06/17 16:42 EDT    5.74   6.34 -999 -999 -999  86.0  73.8 1017.5 -9.9 -9.999 -99.9 -99.99 -9.99
2018/06/17 16:48 EDT    5.69   6.30 -999 -999 -999  86.4  74.1 1017.5 -9.9 -9.999 -99.9 -99.99 -9.99
2018/06/17 16:54 EDT    5.63   6.26 -999 -999 -999  86.7  74.1 1017.5 -9.9 -9.999 -99.9 -99.99 -9.99
2018/06/17 17:00 EDT    5.57   6.21 -999 -999 -999  85.5  73.9 1017.5 -9.9 -9.999 -99.9 -99.99 -9.99
2018/06/17 17:06 EDT    5.51   6.11 -999 -999 -999  83.8  73.9 1017.5 -9.9 -9.999 -99.9 -99.99 -9.99
2018/06/17 17:12 EDT    5.44   6.00 -999 -999 -999  84.6  73.9 1017.5 -9.9 -9.999 -99.9 -99.99 -9.99
2018/06/17 17:18 EDT    5.36   5.91 -999 -999 -999  84.9  73.9 1017.4 -9.9 -9.999 -99.9 -99.99 -9.99
2018/06/17 17:24 EDT    5.28   5.83 -999 -999 -999  84.6  73.9 1017.5 -9.9 -9.999 -99.9 -99.99 -9.99
2018/06/17 17:30 EDT    5.20   5.71 -999 -999 -999  85.1  73.4 1017.5 -9.9 -9.999 -99.9 -99.99 -9.99
2018/06/17 17:36 EDT    5.11   5.60 -999 -999 -999  85.6  73.6 1017.5 -9.9 -9.999 -99.9 -99.99 -9.99
2018/06/17 17:42 EDT    5.02   5.48 -999 -999 -999  85.5  74.3 1017.4 -9.9 -9.999 -99.9 -99.99 -9.99
2018/06/17 17:48 EDT    4.93   5.35 -999 -999 -999  85.3  74.3 1017.4 -9.9 -9.999 -99.9 -99.99 -9.99
2018/06/17 17:54 EDT    4.84   5.25 -999 -999 -999  84.0  73.4 1017.4 -9.9 -9.999 -99.9 -99.99 -9.99
2018/06/17 18:00 EDT    4.75   5.14 -999 -999 -999  84.0  74.7 1017.3 -9.9 -9.999 -99.9 -99.99 -9.99
2018/06/17 18:06 EDT    4.65   5.02 -999 -999 -999  84.4  75.0 1017.4 -9.9 -9.999 -99.9 -99.99 -9.99
2018/06/17 18:12 EDT    4.56   4.93 -999 -999 -999  84.0  75.4 1017.5 -9.9 -9.999 -99.9 -99.99 -9.99
2018/06/17 18:18 EDT    4.46   4.82 -999 -999 -999  83.8  75.4 1017.4 -9.9 -9.999 -99.9 -99.99 -9.99
2018/06/17 18:24 EDT    4.37   4.72 -999 -999 -999  82.9  75.7 1017.3 -9.9 -9.999 -99.9 -99.99 -9.99
2018/06/17 18:30 EDT    4.27   4.61 -999 -999 -999  82.0  75.7 1017.5 -9.9 -9.999 -99.9 -99.99 -9.99
2018/06/17 18:36 EDT    4.17   4.49 -999 -999 -999  82.0  75.9 1017.4 -9.9 -9.999 -99.9 -99.99 -9.99
2018/06/17 18:42 EDT    4.08   4.38 -999 -999 -999  82.0  75.9 1017.3 -9.9 -9.999 -99.9 -99.99 -9.99
2018/06/17 18:48 EDT    3.98   4.27 -999 -999 -999  81.5  76.1 1017.4 -9.9 -9.999 -99.9 -99.99 -9.99
2018/06/17 18:54 EDT    3.88   4.16 -999 -999 -999  81.1  75.2 1017.4 -9.9 -9.999 -99.9 -99.99 -9.99
2018/06/17 19:00 EDT    3.79   4.05 -999 -999 -999  80.6  74.3 1017.4 -9.9 -9.999 -99.9 -99.99 -9.99
2018/06/17 19:06 EDT    3.69   3.95 -999 -999 -999  79.9  74.1 1017.4 -9.9 -9.999 -99.9 -99.99 -9.99
2018/06/17 19:12 EDT    3.59   3.84 -999 -999 -999  79.5  74.3 1017.5 -9.9 -9.999 -99.9 -99.99 -9.99
2018/06/17 19:18 EDT    3.49   3.74 -999 -999 -999  79.5  74.7 1017.7 -9.9 -9.999 -99.9 -99.99 -9.99
2018/06/17 19:24 EDT    3.40   3.63 -999 -999 -999  79.5  74.1 1017.8 -9.9 -9.999 -99.9 -99.99 -9.99
2018/06/17 19:30 EDT    3.30   3.52 -999 -999 -999  79.7  73.9 1017.9 -9.9 -9.999 -99.9 -99.99 -9.99
2018/06/17 19:36 EDT    3.20   3.41 -999 -999 -999  79.5  74.3 1017.9 -9.9 -9.999 -99.9 -99.99 -9.99
2018/06/17 19:42 EDT    3.11   3.31 -999 -999 -999  79.3  74.3 1017.8 -9.9 -9.999 -99.9 -99.99 -9.99
2018/06/17 19:48 EDT    3.01   3.21 -999 -999 -999  79.0  74.1 1017.8 -9.9 -9.999 -99.9 -99.99 -9.99
2018/06/17 19:54 EDT    2.91   3.10 -999 -999 -999  78.3  73.9 1017.8 -9.9 -9.999 -99.9 -99.99 -9.99
2018/06/17 20:00 EDT    2.82   3.00 -999 -999 -999  77.7  73.6 1017.7 -9.9 -9.999 -99.9 -99.99 -9.99
2018/06/17 20:06 EDT    2.72   2.90 -999 -999 -999  78.3  74.3 1017.6 -9.9 -9.999 -99.9 -99.99 -9.99
2018/06/17 20:12 EDT    2.63   2.80 -999 -999 -999  78.1  73.6 1017.7 -9.9 -9.999 -99.9 -99.99 -9.99
2018/06/17 20:18 EDT    2.53   2.70 -999 -999 -999  78.1  73.6 1017.8 -9.9 -9.999 -99.9 -99.99 -9.99
2018/06/17 20:24 EDT    2.44   2.61 -999 -999 -999  78.1  73.8 1017.7 -9.9 -9.999 -99.9 -99.99 -9.99
2018/06/17 20:30 EDT    2.35   2.51 -999 -999 -999  77.9  73.9 1017.7 -9.9 -9.999 -99.9 -99.99 -9.99
2018/06/17 20:36 EDT    2.26   2.43 -999 -999 -999  77.4  73.8 1017.8 -9.9 -9.999 -99.9 -99.99 -9.99
2018/06/17 20:42 EDT    2.17   2.34 -999 -999 -999  77.4  73.9 1017.8 -9.9 -9.999 -99.9 -99.99 -9.99
2018/06/17 20:48 EDT    2.08   2.25 -999 -999 -999  77.4  73.9 1017.8 -9.9 -9.999 -99.9 -99.99 -9.99
2018/06/17 20:54 EDT    1.99   2.16 -999 -999 -999  77.2  73.4 1018.0 -9.9 -9.999 -99.9 -99.99 -9.99
2018/06/17 21:00 EDT    1.90   2.08 -999 -999 -999  77.0  73.2 1018.0 -9.9 -9.999 -99.9 -99.99 -9.99
2018/06/17 21:06 EDT    1.81   2.00 -999 -999 -999  76.8  73.4 1018.0 -9.9 -9.999 -99.9 -99.99 -9.99
2018/06/17 21:12 EDT    1.72   1.90 -999 -999 -999  76.6  73.9 1018.0 -9.9 -9.999 -99.9 -99.99 -9.99
2018/06/17 21:18 EDT    1.63   1.82 -999 -999 -999  76.1  73.9 1018.1 -9.9 -9.999 -99.9 -99.99 -9.99
2018/06/17 21:24 EDT    1.54   1.73 -999 -999 -999  76.1  73.8 1018.1 -9.9 -9.999 -99.9 -99.99 -9.99
2018/06/17 21:30 EDT    1.46   1.64 -999 -999 -999  76.1  73.4 1018.1 -9.9 -9.999 -99.9 -99.99 -9.99
2018/06/17 21:36 EDT    1.37   1.56 -999 -999 -999  76.1  73.4 1018.1 -9.9 -9.999 -99.9 -99.99 -9.99
2018/06/17 21:42 EDT    1.28   1.48 -999 -999 -999  75.7  73.4 1018.2 -9.9 -9.999 -99.9 -99.99 -9.99
2018/06/17 21:48 EDT    1.20   1.42 -999 -999 -999  75.4  73.2 1018.4 -9.9 -9.999 -99.9 -99.99 -9.99
2018/06/17 21:54 EDT    1.11   1.34 -999 -999 -999  75.2  73.4 1018.3 -9.9 -9.999 -99.9 -99.99 -9.99
2018/06/17 22:00 EDT    1.03   1.24 -999 -999 -999  75.4  73.4 1018.3 -9.9 -9.999 -99.9 -99.99 -9.99
2018/06/17 22:06 EDT    0.95   1.17 -999 -999 -999  75.4  73.6 1018.3 -9.9 -9.999 -99.9 -99.99 -9.99
2018/06/17 22:12 EDT    0.87   1.09 -999 -999 -999  75.0  73.4 1018.3 -9.9 -9.999 -99.9 -99.99 -9.99
2018/06/17 22:18 EDT    0.80   0.97 -999 -999 -999  75.0  73.4 1018.4 -9.9 -9.999 -99.9 -99.99 -9.99
2018/06/17 22:24 EDT    0.73   0.93 -999 -999 -999  74.7  73.2 1018.2 -9.9 -9.999 -99.9 -99.99 -9.99
2018/06/17 22:30 EDT    0.66   0.86 -999 -999 -999  74.5  73.2 1018.1 -9.9 -9.999 -99.9 -99.99 -9.99
2018/06/17 22:36 EDT    0.61   0.77 -999 -999 -999  74.3  73.2 1018.1 -9.9 -9.999 -99.9 -99.99 -9.99
2018/06/17 22:42 EDT    0.56   0.71 -999 -999 -999  73.9  73.4 1018.0 -9.9 -9.999 -99.9 -99.99 -9.99
2018/06/17 22:48 EDT    0.52   0.65 -999 -999 -999  74.1  73.4 1018.1 -9.9 -9.999 -99.9 -99.99 -9.99
2018/06/17 22:54 EDT    0.49   0.59 -999 -999 -999  73.9  73.4 1018.2 -9.9 -9.999 -99.9 -99.99 -9.99
2018/06/17 23:00 EDT    0.47   0.54 -999 -999 -999  73.8  73.4 1018.4 -9.9 -9.999 -99.9 -99.99 -9.99
2018/06/17 23:06 EDT    0.46   0.51 -999 -999 -999  73.6  73.4 1018.3 -9.9 -9.999 -99.9 -99.99 -9.99
2018/06/17 23:12 EDT    0.46   0.46 -999 -999 -999  73.4  73.2 1018.1 -9.9 -9.999 -99.9 -99.99 -9.99
2018/06/17 23:18 EDT    0.48   0.45 -999 -999 -999  73.4  73.2 1018.3 -9.9 -9.999 -99.9 -99.99 -9.99
2018/06/17 23:24 EDT    0.51   0.47 -999 -999 -999  73.4  73.2 1018.2 -9.9 -9.999 -99.9 -99.99 -9.99
2018/06/17 23:30 EDT    0.56   0.50 -999 -999 -999  73.2  73.2 1018.3 -9.9 -9.999 -99.9 -99.99 -9.99
2018/06/17 23:36 EDT    0.62   0.60 -999 -999 -999  73.2  73.2 1018.2 -9.9 -9.999 -99.9 -99.99 -9.99
2018/06/17 23:42 EDT    0.70   0.76 -999 -999 -999  73.2  73.2 1018.2 -9.9 -9.999 -99.9 -99.99 -9.99
2018/06/17 23:48 EDT    0.79   0.97 -999 -999 -999  73.0  73.0 1018.2 -9.9 -9.999 -99.9 -99.99 -9.99
2018/06/17 23:54 EDT    0.90   1.21 -999 -999 -999  72.9  73.2 1018.2 -9.9 -9.999 -99.9 -99.99 -9.99
2018/06/18 00:00 EDT    1.02   1.47 -999 -999 -999  72.9  73.2 1018.2 -9.9 -9.999 -99.9 -99.99 -9.99
2018/06/18 00:06 EDT    1.15   1.72 -999 -999 -999  72.9  73.2 1018.2 -9.9 -9.999 -99.9 -99.99 -9.99
2018/06/18 00:12 EDT    1.30   1.94 -999 -999 -999  72.7  73.2 1018.2 -9.9 -9.999 -99.9 -99.99 -9.99
2018/06/18 00:18 EDT    1.46   2.15 -999 -999 -999  72.7  73.2 1018.3 -9.9 -9.999 -99.9 -99.99 -9.99
2018/06/18 00:24 EDT    1.63   2.35 -999 -999 -999  72.5  73.2 1018.4 -9.9 -9.999 -99.9 -99.99 -9.99
2018/06/18 00:30 EDT    1.81   2.55 -999 -999 -999  72.5  73.2 1018.4 -9.9 -9.999 -99.9 -99.99 -9.99
2018/06/18 00:36 EDT    1.99   2.74 -999 -999 -999  72.3  73.2 1018.3 -9.9 -9.999 -99.9 -99.99 -9.99
2018/06/18 00:42 EDT    2.19   2.93 -999 -999 -999  72.3  73.2 1018.3 -9.9 -9.999 -99.9 -99.99 -9.99
2018/06/18 00:48 EDT    2.39   3.12 -999 -999 -999  72.1  73.2 1018.2 -9.9 -9.999 -99.9 -99.99 -9.99
2018/06/18 00:54 EDT    2.59   3.31 -999 -999 -999  72.1  73.2 1018.1 -9.9 -9.999 -99.9 -99.99 -9.99
2018/06/18 01:00 EDT    2.79   3.48 -999 -999 -999  72.1  73.2 1018.1 -9.9 -9.999 -99.9 -99.99 -9.99
2018/06/18 01:06 EDT    3.00   3.66 -999 -999 -999  72.0  73.2 1018.2 -9.9 -9.999 -99.9 -99.99 -9.99
2018/06/18 01:12 EDT    3.20   3.83 -999 -999 -999  72.0  73.2 1018.4 -9.9 -9.999 -99.9 -99.99 -9.99
2018/06/18 01:18 EDT    3.40   4.01 -999 -999 -999  72.0  73.2 1018.3 -9.9 -9.999 -99.9 -99.99 -9.99
2018/06/18 01:24 EDT    3.60 -99.99 -999 -999 -999 -99.9 -99.9 -999.9 -9.9 -9.999 -99.9 -99.99 -9.99
2018/06/18 01:30 EDT    3.80 -99.99 -999 -999 -999 -99.9 -99.9 -999.9 -9.9 -9.999 -99.9 -99.99 -9.99
2018/06/18 01:36 EDT    3.99 -99.99 -999 -999 -999 -99.9 -99.9 -999.9 -9.9 -9.999 -99.9 -99.99 -9.99
2018/06/18 01:42 EDT    4.18 -99.99 -999 -999 -999 -99.9 -99.9 -999.9 -9.9 -9.999 -99.9 -99.99 -9.99
2018/06/18 01:48 EDT    4.36 -99.99 -999 -999 -999 -99.9 -99.9 -999.9 -9.9 -9.999 -99.9 -99.99 -9.99
2018/06/18 01:54 EDT    4.53 -99.99 -999 -999 -999 -99.9 -99.9 -999.9 -9.9 -9.999 -99.9 -99.99 -9.99
2018/06/18 02:00 EDT    4.69 -99.99 -999 -999 -999 -99.9 -99.9 -999.9 -9.9 -9.999 -99.9 -99.99 -9.99
2018/06/18 02:06 EDT    4.85 -99.99 -999 -999 -999 -99.9 -99.9 -999.9 -9.9 -9.999 -99.9 -99.99 -9.99
2018/06/18 02:12 EDT    5.00 -99.99 -999 -999 -999 -99.9 -99.9 -999.9 -9.9 -9.999 -99.9 -99.99 -9.99
2018/06/18 02:18 EDT    5.15 -99.99 -999 -999 -999 -99.9 -99.9 -999.9 -9.9 -9.999 -99.9 -99.99 -9.99
2018/06/18 02:24 EDT    5.29 -99.99 -999 -999 -999 -99.9 -99.9 -999.9 -9.9 -9.999 -99.9 -99.99 -9.99
2018/06/18 02:30 EDT    5.42 -99.99 -999 -999 -999 -99.9 -99.9 -999.9 -9.9 -9.999 -99.9 -99.99 -9.99
2018/06/18 02:36 EDT    5.54 -99.99 -999 -999 -999 -99.9 -99.9 -999.9 -9.9 -9.999 -99.9 -99.99 -9.99
2018/06/18 02:42 EDT    5.66 -99.99 -999 -999 -999 -99.9 -99.9 -999.9 -9.9 -9.999 -99.9 -99.99 -9.99
2018/06/18 02:48 EDT    5.77 -99.99 -999 -999 -999 -99.9 -99.9 -999.9 -9.9 -9.999 -99.9 -99.99 -9.99
2018/06/18 02:54 EDT    5.88 -99.99 -999 -999 -999 -99.9 -99.9 -999.9 -9.9 -9.999 -99.9 -99.99 -9.99
2018/06/18 03:00 EDT    5.97 -99.99 -999 -999 -999 -99.9 -99.9 -999.9 -9.9 -9.999 -99.9 -99.99 -9.99
2018/06/18 03:06 EDT    6.07 -99.99 -999 -999 -999 -99.9 -99.9 -999.9 -9.9 -9.999 -99.9 -99.99 -9.99
2018/06/18 03:12 EDT    6.16 -99.99 -999 -999 -999 -99.9 -99.9 -999.9 -9.9 -9.999 -99.9 -99.99 -9.99
2018/06/18 03:18 EDT    6.24 -99.99 -999 -999 -999 -99.9 -99.9 -999.9 -9.9 -9.999 -99.9 -99.99 -9.99
2018/06/18 03:24 EDT    6.31 -99.99 -999 -999 -999 -99.9 -99.9 -999.9 -9.9 -9.999 -99.9 -99.99 -9.99
2018/06/18 03:30 EDT    6.38 -99.99 -999 -999 -999 -99.9 -99.9 -999.9 -9.9 -9.999 -99.9 -99.99 -9.99
2018/06/18 03:36 EDT    6.45 -99.99 -999 -999 -999 -99.9 -99.9 -999.9 -9.9 -9.999 -99.9 -99.99 -9.99
2018/06/18 03:42 EDT    6.50 -99.99 -999 -999 -999 -99.9 -99.9 -999.9 -9.9 -9.999 -99.9 -99.99 -9.99
2018/06/18 03:48 EDT    6.55 -99.99 -999 -999 -999 -99.9 -99.9 -999.9 -9.9 -9.999 -99.9 -99.99 -9.99
2018/06/18 03:54 EDT    6.60 -99.99 -999 -999 -999 -99.9 -99.9 -999.9 -9.9 -9.999 -99.9 -99.99 -9.99
2018/06/18 04:00 EDT    6.63 -99.99 -999 -999 -999 -99.9 -99.9 -999.9 -9.9 -9.999 -99.9 -99.99 -9.99
2018/06/18 04:06 EDT    6.66 -99.99 -999 -999 -999 -99.9 -99.9 -999.9 -9.9 -9.999 -99.9 -99.99 -9.99
2018/06/18 04:12 EDT    6.68 -99.99 -999 -999 -999 -99.9 -99.9 -999.9 -9.9 -9.999 -99.9 -99.99 -9.99
2018/06/18 04:18 EDT    6.69 -99.99 -999 -999 -999 -99.9 -99.9 -999.9 -9.9 -9.999 -99.9 -99.99 -9.99
2018/06/18 04:24 EDT    6.69 -99.99 -999 -999 -999 -99.9 -99.9 -999.9 -9.9 -9.999 -99.9 -99.99 -9.99
2018/06/18 04:30 EDT    6.69 -99.99 -999 -999 -999 -99.9 -99.9 -999.9 -9.9 -9.999 -99.9 -99.99 -9.99
2018/06/18 04:36 EDT    6.68 -99.99 -999 -999 -999 -99.9 -99.9 -999.9 -9.9 -9.999 -99.9 -99.99 -9.99
2018/06/18 04:42 EDT    6.66 -99.99 -999 -999 -999 -99.9 -99.9 -999.9 -9.9 -9.999 -99.9 -99.99 -9.99
2018/06/18 04:48 EDT    6.63 -99.99 -999 -999 -999 -99.9 -99.9 -999.9 -9.9 -9.999 -99.9 -99.99 -9.99
2018/06/18 04:54 EDT    6.59 -99.99 -999 -999 -999 -99.9 -99.9 -999.9 -9.9 -9.999 -99.9 -99.99 -9.99
2018/06/18 05:00 EDT    6.54 -99.99 -999 -999 -999 -99.9 -99.9 -999.9 -9.9 -9.999 -99.9 -99.99 -9.99
2018/06/18 05:06 EDT    6.49 -99.99 -999 -999 -999 -99.9 -99.9 -999.9 -9.9 -9.999 -99.9 -99.99 -9.99
2018/06/18 05:12 EDT    6.43 -99.99 -999 -999 -999 -99.9 -99.9 -999.9 -9.9 -9.999 -99.9 -99.99 -9.99
2018/06/18 05:18 EDT    6.37 -99.99 -999 -999 -999 -99.9 -99.9 -999.9 -9.9 -9.999 -99.9 -99.99 -9.99
2018/06/18 05:24 EDT    6.30 -99.99 -999 -999 -999 -99.9 -99.9 -999.9 -9.9 -9.999 -99.9 -99.99 -9.99
2018/06/18 05:30 EDT    6.22 -99.99 -999 -999 -999 -99.9 -99.9 -999.9 -9.9 -9.999 -99.9 -99.99 -9.99
2018/06/18 05:36 EDT    6.14 -99.99 -999 -999 -999 -99.9 -99.9 -999.9 -9.9 -9.999 -99.9 -99.99 -9.99
2018/06/18 05:42 EDT    6.06 -99.99 -999 -999 -999 -99.9 -99.9 -999.9 -9.9 -9.999 -99.9 -99.99 -9.99
2018/06/18 05:48 EDT    5.97 -99.99 -999 -999 -999 -99.9 -99.9 -999.9 -9.9 -9.999 -99.9 -99.99 -9.99
2018/06/18 05:54 EDT    5.88 -99.99 -999 -999 -999 -99.9 -99.9 -999.9 -9.9 -9.999 -99.9 -99.99 -9.99
2018/06/18 06:00 EDT    5.78 -99.99 -999 -999 -999 -99.9 -99.9 -999.9 -9.9 -9.999 -99.9 -99.99 -9.99
2018/06/18 06:06 EDT    5.69 -99.99 -999 -999 -999 -99.9 -99.9 -999.9 -9.9 -9.999 -99.9 -99.99 -9.99
2018/06/18 06:12 EDT    5.59 -99.99 -999 -999 -999 -99.9 -99.9 -999.9 -9.9 -9.999 -99.9 -99.99 -9.99
2018/06/18 06:18 EDT    5.49 -99.99 -999 -999 -999 -99.9 -99.9 -999.9 -9.9 -9.999 -99.9 -99.99 -9.99
2018/06/18 06:24 EDT    5.39 -99.99 -999 -999 -999 -99.9 -99.9 -999.9 -9.9 -9.999 -99.9 -99.99 -9.99
2018/06/18 06:30 EDT    5.30 -99.99 -999 -999 -999 -99.9 -99.9 -999.9 -9.9 -9.999 -99.9 -99.99 -9.99
2018/06/18 06:36 EDT    5.20 -99.99 -999 -999 -999 -99.9 -99.9 -999.9 -9.9 -9.999 -99.9 -99.99 -9.99
2018/06/18 06:42 EDT    5.10 -99.99 -999 -999 -999 -99.9 -99.9 -999.9 -9.9 -9.999 -99.9 -99.99 -9.99
2018/06/18 06:48 EDT    5.00 -99.99 -999 -999 -999 -99.9 -99.9 -999.9 -9.9 -9.999 -99.9 -99.99 -9.99
2018/06/18 06:54 EDT    4.90 -99.99 -999 -999 -999 -99.9 -99.9 -999.9 -9.9 -9.999 -99.9 -99.99 -9.99
2018/06/18 07:00 EDT    4.80 -99.99 -999 -999 -999 -99.9 -99.9 -999.9 -9.9 -9.999 -99.9 -99.99 -9.99
2018/06/18 07:06 EDT    4.70 -99.99 -999 -999 -999 -99.9 -99.9 -999.9 -9.9 -9.999 -99.9 -99.99 -9.99
2018/06/18 07:12 EDT    4.60 -99.99 -999 -999 -999 -99.9 -99.9 -999.9 -9.9 -9.999 -99.9 -99.99 -9.99
2018/06/18 07:18 EDT    4.50 -99.99 -999 -999 -999 -99.9 -99.9 -999.9 -9.9 -9.999 -99.9 -99.99 -9.99
2018/06/18 07:24 EDT    4.39 -99.99 -999 -999 -999 -99.9 -99.9 -999.9 -9.9 -9.999 -99.9 -99.99 -9.99
2018/06/18 07:30 EDT    4.29 -99.99 -999 -999 -999 -99.9 -99.9 -999.9 -9.9 -9.999 -99.9 -99.99 -9.99

Revised: 10/15/2013
NOAA / National Ocean Service
Web site owner: Center for Operational Oceanographic Products and Services